GAF1501 EDHL-EDDB
Flight info
| Callsign | GAF1501 |
|---|---|
| Flight time | 0h 29m |
| Altitude | 23000 |
| Route | RAMAR2A RAMAR Z998 PITEN L619 VIBIS T209 OGBER OGBER1R |
| Aircraft | A319/M-SDE3FGHIRWY/LB1 |
Departure
| Time | 2026-05-06 13:39 |
|---|---|
| Airport | Lübeck Blankensee Airport (EDHL) |
Arrival
| Time | 2026-05-06 14:08 |
|---|---|
| Airport | Berlin Brandenburg Airport (EDDB) |
| Time | Latitude | Longitude | Altitude | Speed | Heading |
|---|---|---|---|---|---|
| 2026-05-06 13:22 | 53.80464 | 10.70250 | 56 ft | 0 kts | 327° |
| 2026-05-06 13:29 | 53.80463 | 10.70251 | 59 ft | 2 kts | 327° |
| 2026-05-06 13:30 | 53.80446 | 10.70277 | 52 ft | 4 kts | 290° |
| 2026-05-06 13:30 | 53.80439 | 10.70301 | 54 ft | 2 kts | 342° |
| 2026-05-06 13:30 | 53.80425 | 10.70315 | 54 ft | 4 kts | 270° |
| 2026-05-06 13:30 | 53.80430 | 10.70355 | 52 ft | 4 kts | 252° |
| 2026-05-06 13:31 | 53.80432 | 10.70365 | 52 ft | 0 kts | 252° |
| 2026-05-06 13:35 | 53.80431 | 10.70362 | 52 ft | 2 kts | 252° |
| 2026-05-06 13:35 | 53.80422 | 10.70314 | 55 ft | 7 kts | 252° |
| 2026-05-06 13:35 | 53.80402 | 10.70212 | 51 ft | 8 kts | 252° |
| 2026-05-06 13:36 | 53.80392 | 10.70155 | 58 ft | 4 kts | 252° |
| 2026-05-06 13:36 | 53.80374 | 10.70119 | 55 ft | 4 kts | 209° |
| 2026-05-06 13:36 | 53.80361 | 10.70122 | 59 ft | 0 kts | 165° |
| 2026-05-06 13:37 | 53.80359 | 10.70122 | 58 ft | 1 kts | 165° |
| 2026-05-06 13:37 | 53.80337 | 10.70131 | 61 ft | 5 kts | 168° |
| 2026-05-06 13:37 | 53.80298 | 10.70141 | 62 ft | 7 kts | 171° |
| 2026-05-06 13:38 | 53.80245 | 10.70155 | 62 ft | 9 kts | 171° |
| 2026-05-06 13:38 | 53.80213 | 10.70249 | 62 ft | 13 kts | 75° |
| 2026-05-06 13:38 | 53.80289 | 10.70655 | 54 ft | 70 kts | 72° |
| 2026-05-06 13:38 | 53.80508 | 10.71798 | 99 ft | 129 kts | 71° |
| 2026-05-06 13:39 | 53.80669 | 10.72764 | 562 ft | 124 kts | 71° |
| 2026-05-06 13:39 | 53.80932 | 10.74164 | 1400 ft | 128 kts | 69° |
| 2026-05-06 13:39 | 53.81230 | 10.75690 | 1977 ft | 147 kts | 69° |
| 2026-05-06 13:39 | 53.81707 | 10.78126 | 2800 ft | 181 kts | 70° |
| 2026-05-06 13:40 | 53.82129 | 10.80286 | 3571 ft | 206 kts | 71° |
| 2026-05-06 13:40 | 53.82592 | 10.82683 | 4592 ft | 220 kts | 72° |
| 2026-05-06 13:40 | 53.83074 | 10.85186 | 5758 ft | 227 kts | 72° |
| 2026-05-06 13:40 | 53.83374 | 10.86907 | 6473 ft | 235 kts | 79° |
| 2026-05-06 13:41 | 53.83172 | 10.89673 | 7539 ft | 247 kts | 115° |
| 2026-05-06 13:41 | 53.82024 | 10.91904 | 8676 ft | 258 kts | 139° |
| 2026-05-06 13:41 | 53.80529 | 10.93694 | 9496 ft | 268 kts | 153° |
| 2026-05-06 13:41 | 53.78742 | 10.94571 | 9780 ft | 270 kts | 174° |
| 2026-05-06 13:42 | 53.76779 | 10.94529 | 9875 ft | 298 kts | 187° |
| 2026-05-06 13:42 | 53.74628 | 10.94158 | 9882 ft | 318 kts | 185° |
| 2026-05-06 13:42 | 53.72414 | 10.94202 | 10133 ft | 329 kts | 171° |
| 2026-05-06 13:42 | 53.70220 | 10.95197 | 11244 ft | 324 kts | 158° |
| 2026-05-06 13:43 | 53.68215 | 10.96865 | 12451 ft | 321 kts | 149° |
| 2026-05-06 13:43 | 53.66283 | 10.98822 | 13403 ft | 327 kts | 150° |
| 2026-05-06 13:43 | 53.64314 | 11.00816 | 14296 ft | 331 kts | 150° |
| 2026-05-06 13:43 | 53.62326 | 11.02837 | 15153 ft | 336 kts | 150° |
| 2026-05-06 13:44 | 53.60310 | 11.04889 | 15997 ft | 341 kts | 151° |
| 2026-05-06 13:44 | 53.58263 | 11.06974 | 16832 ft | 346 kts | 151° |
| 2026-05-06 13:44 | 53.56191 | 11.09083 | 17678 ft | 351 kts | 151° |
| 2026-05-06 13:44 | 53.54089 | 11.11219 | 18465 ft | 355 kts | 152° |
| 2026-05-06 13:45 | 53.51961 | 11.13379 | 19185 ft | 360 kts | 152° |
| 2026-05-06 13:45 | 53.48067 | 11.18768 | 20580 ft | 374 kts | 136° |
| 2026-05-06 13:45 | 53.46504 | 11.22313 | 21268 ft | 384 kts | 120° |
| 2026-05-06 13:46 | 53.45408 | 11.26440 | 21998 ft | 389 kts | 115° |
| 2026-05-06 13:46 | 53.44343 | 11.30642 | 22620 ft | 394 kts | 115° |
| 2026-05-06 13:46 | 53.43103 | 11.34712 | 22806 ft | 391 kts | 127° |
| 2026-05-06 13:46 | 53.41318 | 11.38010 | 22844 ft | 376 kts | 139° |
| 2026-05-06 13:47 | 53.39415 | 11.40970 | 22829 ft | 371 kts | 139° |
| 2026-05-06 13:47 | 53.37521 | 11.43885 | 22840 ft | 369 kts | 140° |
| 2026-05-06 13:47 | 53.35652 | 11.46751 | 22840 ft | 369 kts | 140° |
| 2026-05-06 13:47 | 53.33762 | 11.49650 | 22835 ft | 369 kts | 140° |
| 2026-05-06 13:48 | 53.31869 | 11.52557 | 22835 ft | 369 kts | 140° |
| 2026-05-06 13:48 | 53.29968 | 11.55467 | 22844 ft | 378 kts | 140° |
| 2026-05-06 13:48 | 53.27969 | 11.58513 | 22833 ft | 399 kts | 140° |
| 2026-05-06 13:48 | 53.25867 | 11.61717 | 22833 ft | 418 kts | 139° |
| 2026-05-06 13:49 | 53.23673 | 11.65063 | 22835 ft | 434 kts | 139° |
| 2026-05-06 13:49 | 53.21485 | 11.68413 | 22827 ft | 421 kts | 139° |
| 2026-05-06 13:49 | 53.19339 | 11.71701 | 22830 ft | 417 kts | 139° |
| 2026-05-06 13:49 | 53.17235 | 11.74915 | 22840 ft | 416 kts | 139° |
| 2026-05-06 13:50 | 53.15100 | 11.78162 | 22837 ft | 415 kts | 139° |
| 2026-05-06 13:50 | 53.12965 | 11.81402 | 22601 ft | 414 kts | 140° |
| 2026-05-06 13:50 | 53.10841 | 11.84625 | 22227 ft | 412 kts | 140° |
| 2026-05-06 13:50 | 53.08726 | 11.87832 | 21852 ft | 410 kts | 141° |
| 2026-05-06 13:51 | 53.06621 | 11.91022 | 21481 ft | 408 kts | 141° |
| 2026-05-06 13:51 | 53.04529 | 11.94186 | 21116 ft | 406 kts | 141° |
| 2026-05-06 13:51 | 53.02441 | 11.97336 | 20755 ft | 404 kts | 141° |
| 2026-05-06 13:51 | 53.00362 | 12.00471 | 20394 ft | 403 kts | 141° |
| 2026-05-06 13:52 | 52.98291 | 12.03588 | 20042 ft | 401 kts | 141° |
| 2026-05-06 13:52 | 52.96257 | 12.06643 | 19700 ft | 399 kts | 141° |
| 2026-05-06 13:52 | 52.94201 | 12.09722 | 19348 ft | 397 kts | 141° |
| 2026-05-06 13:52 | 52.92151 | 12.12788 | 19012 ft | 396 kts | 141° |
| 2026-05-06 13:53 | 52.90109 | 12.15833 | 18673 ft | 394 kts | 141° |
| 2026-05-06 13:53 | 52.88076 | 12.18862 | 18333 ft | 393 kts | 141° |
| 2026-05-06 13:53 | 52.86048 | 12.21882 | 17986 ft | 392 kts | 142° |
| 2026-05-06 13:53 | 52.84024 | 12.24898 | 17606 ft | 391 kts | 142° |
| 2026-05-06 13:54 | 52.82010 | 12.27900 | 17224 ft | 389 kts | 142° |
| 2026-05-06 13:54 | 52.80026 | 12.30853 | 16867 ft | 388 kts | 142° |
| 2026-05-06 13:54 | 52.78025 | 12.33824 | 16503 ft | 386 kts | 142° |
| 2026-05-06 13:54 | 52.76033 | 12.36783 | 16127 ft | 384 kts | 142° |
| 2026-05-06 13:55 | 52.74049 | 12.39727 | 15778 ft | 383 kts | 142° |
| 2026-05-06 13:55 | 52.72076 | 12.42646 | 15425 ft | 381 kts | 142° |
| 2026-05-06 13:55 | 52.70103 | 12.45552 | 15069 ft | 379 kts | 142° |
| 2026-05-06 13:55 | 52.68140 | 12.48438 | 14729 ft | 378 kts | 142° |
| 2026-05-06 13:56 | 52.66185 | 12.51316 | 14392 ft | 376 kts | 141° |
| 2026-05-06 13:56 | 52.64240 | 12.54178 | 14049 ft | 374 kts | 141° |
| 2026-05-06 13:56 | 52.62301 | 12.57029 | 13708 ft | 373 kts | 141° |
| 2026-05-06 13:56 | 52.60397 | 12.59826 | 13277 ft | 371 kts | 142° |
| 2026-05-06 13:57 | 52.58478 | 12.62639 | 12770 ft | 367 kts | 142° |
| 2026-05-06 13:57 | 52.56575 | 12.65421 | 12236 ft | 364 kts | 142° |
| 2026-05-06 13:57 | 52.54690 | 12.68175 | 11720 ft | 361 kts | 142° |
| 2026-05-06 13:57 | 52.52834 | 12.70892 | 11215 ft | 348 kts | 142° |
| 2026-05-06 13:58 | 52.51080 | 12.73465 | 10717 ft | 330 kts | 142° |
| 2026-05-06 13:58 | 52.49405 | 12.75912 | 10237 ft | 316 kts | 142° |
| 2026-05-06 13:58 | 52.47786 | 12.78266 | 9751 ft | 306 kts | 142° |
| 2026-05-06 13:58 | 52.46226 | 12.80530 | 9232 ft | 296 kts | 142° |
| 2026-05-06 13:59 | 52.44687 | 12.82762 | 8694 ft | 294 kts | 142° |
| 2026-05-06 13:59 | 52.43147 | 12.84988 | 8189 ft | 296 kts | 142° |
| 2026-05-06 13:59 | 52.41622 | 12.87187 | 7690 ft | 296 kts | 142° |
| 2026-05-06 13:59 | 52.40074 | 12.89421 | 7186 ft | 297 kts | 142° |
| 2026-05-06 14:00 | 52.38529 | 12.91655 | 6695 ft | 297 kts | 141° |
| 2026-05-06 14:00 | 52.36984 | 12.93890 | 6200 ft | 296 kts | 141° |
| 2026-05-06 14:00 | 52.35443 | 12.96122 | 5680 ft | 294 kts | 140° |
| 2026-05-06 14:00 | 52.33916 | 12.98330 | 5159 ft | 291 kts | 140° |
| 2026-05-06 14:01 | 52.32429 | 13.00476 | 4653 ft | 280 kts | 140° |
| 2026-05-06 14:01 | 52.30989 | 13.02544 | 4145 ft | 271 kts | 139° |
| 2026-05-06 14:01 | 52.29647 | 13.04571 | 3959 ft | 252 kts | 131° |
| 2026-05-06 14:01 | 52.28748 | 13.06815 | 3956 ft | 228 kts | 114° |
| 2026-05-06 14:02 | 52.28286 | 13.09216 | 3969 ft | 218 kts | 99° |
| 2026-05-06 14:02 | 52.28214 | 13.11639 | 3978 ft | 208 kts | 84° |
| 2026-05-06 14:02 | 52.28487 | 13.13918 | 4002 ft | 204 kts | 71° |
| 2026-05-06 14:02 | 52.28982 | 13.16023 | 3979 ft | 189 kts | 67° |
| 2026-05-06 14:03 | 52.29457 | 13.17986 | 3977 ft | 184 kts | 66° |
| 2026-05-06 14:03 | 52.29924 | 13.19921 | 3838 ft | 182 kts | 67° |
| 2026-05-06 14:03 | 52.30384 | 13.21829 | 3630 ft | 180 kts | 67° |
| 2026-05-06 14:03 | 52.30838 | 13.23715 | 3401 ft | 177 kts | 67° |
| 2026-05-06 14:04 | 52.31279 | 13.25551 | 3180 ft | 174 kts | 66° |
| 2026-05-06 14:04 | 52.31718 | 13.27377 | 2940 ft | 172 kts | 66° |
| 2026-05-06 14:04 | 52.32155 | 13.29195 | 2709 ft | 172 kts | 66° |
| 2026-05-06 14:04 | 52.32590 | 13.31007 | 2479 ft | 170 kts | 66° |
| 2026-05-06 14:05 | 52.33021 | 13.32806 | 2241 ft | 170 kts | 66° |
| 2026-05-06 14:05 | 52.33451 | 13.34601 | 2023 ft | 169 kts | 67° |
| 2026-05-06 14:05 | 52.33859 | 13.36308 | 1800 ft | 149 kts | 66° |
| 2026-05-06 14:05 | 52.34211 | 13.37786 | 1597 ft | 133 kts | 67° |
| 2026-05-06 14:06 | 52.34538 | 13.39151 | 1427 ft | 127 kts | 67° |
| 2026-05-06 14:06 | 52.34853 | 13.40472 | 1260 ft | 123 kts | 66° |
| 2026-05-06 14:06 | 52.35161 | 13.41760 | 1082 ft | 124 kts | 66° |
| 2026-05-06 14:06 | 52.35473 | 13.43069 | 914 ft | 123 kts | 66° |
| 2026-05-06 14:07 | 52.35784 | 13.44369 | 745 ft | 122 kts | 65° |
| 2026-05-06 14:07 | 52.36093 | 13.45668 | 574 ft | 122 kts | 65° |
| 2026-05-06 14:07 | 52.36405 | 13.46944 | 417 ft | 121 kts | 65° |
| 2026-05-06 14:07 | 52.36706 | 13.48229 | 228 ft | 121 kts | 65° |
| 2026-05-06 14:08 | 52.36998 | 13.49451 | 156 ft | 104 kts | 69° |
| 2026-05-06 14:08 | 52.37194 | 13.50302 | 155 ft | 55 kts | 69° |
| 2026-05-06 14:08 | 52.37315 | 13.50804 | 155 ft | 48 kts | 69° |
| 2026-05-06 14:08 | 52.37442 | 13.51279 | 155 ft | 27 kts | 41° |
| 2026-05-06 14:09 | 52.37601 | 13.51384 | 155 ft | 21 kts | 7° |
| 2026-05-06 14:09 | 52.37767 | 13.51416 | 155 ft | 27 kts | 7° |
| 2026-05-06 14:09 | 52.37912 | 13.51440 | 155 ft | 17 kts | 347° |
| 2026-05-06 14:09 | 52.37911 | 13.51265 | 155 ft | 18 kts | 258° |
| 2026-05-06 14:10 | 52.37900 | 13.51041 | 155 ft | 20 kts | 270° |
| 2026-05-06 14:10 | 52.37965 | 13.50885 | 155 ft | 16 kts | 329° |
| 2026-05-06 14:10 | 52.38035 | 13.50813 | 155 ft | 10 kts | 327° |
| 2026-05-06 14:10 | 52.38066 | 13.50842 | 155 ft | 6 kts | 50° |
| 2026-05-06 14:11 | 52.38080 | 13.50879 | 155 ft | 0 kts | 57° |